Aviation Digital Data Service (ADDS)

Output produced by METARs form (0202 UTC 24 April 2014)
found at http://aviationweather.gov/adds/metars/
 
KISP 232331Z 2400/2424 32017G30KT P6SM BKN050 
     FM240200 32015G23KT P6SM SKC 
     FM241400 32026G38KT P6SM SKC 
     FM242200 32020G31KT P6SM SKC